Time;durP1;ratioP1;P1;durP2;ratioP2;P2;SDS_P1;SDS_P2;PMS_P1;PMS_P2;Temp;Humidity;BMP_temperature;BMP_pressure;BME280_temperature;BME280_humidity;BME280_pressure;Samples;Min_cycle;Max_cycle;Signal;HPM_P1;HPM_P2
2022/12/16 00:01:09;;;;;;;39.67;22.25;;;;;;;-2.73;68.56;99688.22;4195750;28;20037;-76
2022/12/16 00:03:12;;;;;;;37.40;22.83;;;;;;;-2.76;68.67;99680.44;4191524;28;20032;-76
2022/12/16 00:05:15;;;;;;;36.78;20.30;;;;;;;-2.67;68.35;99690.22;4190666;28;20040;-76
2022/12/16 00:07:18;;;;;;;48.95;26.25;;;;;;;-2.65;68.13;99684.41;4193662;28;20112;-76
2022/12/16 00:09:21;;;;;;;41.33;21.77;;;;;;;-2.57;67.50;99697.56;4200350;28;20036;-75
2022/12/16 00:11:24;;;;;;;35.88;21.00;;;;;;;-2.44;66.62;99709.25;4198823;28;20060;-76
2022/12/16 00:13:28;;;;;;;40.03;20.15;;;;;;;-2.51;66.61;99705.53;4188891;28;20043;-76
2022/12/16 00:15:32;;;;;;;45.00;22.65;;;;;;;-2.57;66.88;99704.31;4200138;28;20067;-76
2022/12/16 00:17:38;;;;;;;51.55;25.63;;;;;;;-2.68;67.38;99703.72;4195531;28;20070;-76
2022/12/16 00:19:41;;;;;;;51.58;25.10;;;;;;;-2.70;66.96;99707.84;4193829;28;20058;-76
2022/12/16 00:21:44;;;;;;;39.53;19.10;;;;;;;-2.70;66.88;99708.75;4186259;28;20033;-76
2022/12/16 00:23:47;;;;;;;51.80;24.65;;;;;;;-2.56;66.88;99714.56;4196701;28;20094;-76
2022/12/16 00:25:50;;;;;;;59.90;28.13;;;;;;;-2.73;66.81;99717.84;4197282;28;20048;-75
2022/12/16 00:27:53;;;;;;;60.80;26.80;;;;;;;-2.70;66.76;99718.00;4195132;28;20071;-76
2022/12/16 00:30:02;;;;;;;69.95;28.38;;;;;;;-2.75;67.45;99727.06;4199324;28;20036;-76
2022/12/16 00:32:05;;;;;;;65.15;28.05;;;;;;;-2.81;67.30;99720.84;4200147;28;20494;-76
2022/12/16 00:34:09;;;;;;;50.45;24.40;;;;;;;-2.70;66.83;99724.00;4200764;28;20123;-76
2022/12/16 00:36:12;;;;;;;55.33;24.10;;;;;;;-2.74;67.05;99731.38;4186493;28;20045;-76
2022/12/16 00:38:15;;;;;;;52.08;23.17;;;;;;;-2.65;67.23;99717.47;4195374;28;20490;-76
2022/12/16 00:40:18;;;;;;;40.90;19.52;;;;;;;-2.77;67.04;99726.09;4197058;28;20067;-76
2022/12/16 00:42:21;;;;;;;63.90;26.20;;;;;;;-2.70;67.07;99725.66;4194875;28;20037;-75
2022/12/16 00:44:24;;;;;;;70.20;27.33;;;;;;;-2.81;67.16;99735.25;4182454;28;20049;-76
2022/12/16 00:46:27;;;;;;;72.28;30.48;;;;;;;-2.86;66.93;99729.91;4193173;28;20069;-75
2022/12/16 00:48:29;;;;;;;81.57;30.88;;;;;;;-2.70;66.54;99739.25;4196988;28;20486;-76
2022/12/16 00:50:34;;;;;;;62.53;25.85;;;;;;;-2.67;66.79;99730.94;4198769;28;20128;-76
2022/12/16 00:52:37;;;;;;;111.95;38.58;;;;;;;-2.76;67.26;99745.66;4198217;28;20449;-76
2022/12/16 00:54:40;;;;;;;50.25;22.38;;;;;;;-2.75;67.11;99743.22;4195373;28;20055;-76
2022/12/16 00:56:43;;;;;;;50.42;22.67;;;;;;;-2.57;66.23;99742.47;4197142;28;20032;-76
2022/12/16 00:58:46;;;;;;;57.45;22.60;;;;;;;-2.66;66.03;99751.38;4196136;28;20617;-76
2022/12/16 01:00:51;;;;;;;79.97;30.85;;;;;;;-2.76;66.88;99748.22;4198186;28;20056;-76
2022/12/16 01:02:56;;;;;;;54.97;22.60;;;;;;;-2.87;67.31;99756.13;4171666;28;20503;-77
2022/12/16 01:05:00;;;;;;;56.25;21.98;;;;;;;-2.76;66.93;99753.31;4185337;28;20048;-76
2022/12/16 01:07:04;;;;;;;42.58;20.33;;;;;;;-2.66;66.69;99759.00;4192305;28;20050;-76
2022/12/16 01:09:07;;;;;;;44.28;21.55;;;;;;;-2.72;66.85;99752.69;4197777;28;20033;-77
2022/12/16 01:11:10;;;;;;;46.42;19.70;;;;;;;-2.69;67.49;99755.41;4183098;28;20483;-76
2022/12/16 01:13:13;;;;;;;42.47;20.05;;;;;;;-2.74;66.24;99751.72;4195066;28;20451;-76
2022/12/16 01:15:16;;;;;;;39.05;18.52;;;;;;;-2.61;65.97;99759.25;4197025;28;20406;-76
2022/12/16 01:17:19;;;;;;;43.85;19.95;;;;;;;-2.74;66.57;99761.91;4194697;28;20042;-77
2022/12/16 01:19:22;;;;;;;58.53;25.15;;;;;;;-2.89;67.26;99762.81;4196148;28;20045;-76
2022/12/16 01:21:25;;;;;;;45.22;21.40;;;;;;;-2.86;67.71;99762.97;4191412;28;20040;-76
2022/12/16 01:23:29;;;;;;;38.60;18.23;;;;;;;-2.67;66.65;99769.09;4186022;28;20040;-76
2022/12/16 01:25:33;;;;;;;35.60;16.70;;;;;;;-2.77;66.90;99769.34;4191816;28;20450;-76
2022/12/16 01:27:36;;;;;;;45.42;20.48;;;;;;;-2.79;67.25;99770.94;4186974;28;20483;-76
2022/12/16 01:29:39;;;;;;;29.23;15.13;;;;;;;-2.66;66.92;99775.91;4199242;28;20062;-76
2022/12/16 01:31:42;;;;;;;91.30;38.17;;;;;;;-2.64;66.94;99781.97;4199809;28;20055;-75
2022/12/16 01:33:45;;;;;;;63.05;28.67;;;;;;;-2.76;67.09;99774.53;4197974;28;20500;-76
2022/12/16 01:35:48;;;;;;;63.92;24.83;;;;;;;-2.75;67.11;99775.41;4193363;28;20036;-76
2022/12/16 01:37:57;;;;;;;30.92;16.67;;;;;;;-2.78;67.37;99780.34;4189494;28;20040;-76
2022/12/16 01:40:02;;;;;;;27.30;14.60;;;;;;;-2.82;67.20;99785.25;4181354;28;20426;-75
2022/12/16 01:42:09;;;;;;;33.97;16.15;;;;;;;-2.75;66.85;99777.97;4197297;28;20428;-76
2022/12/16 01:44:15;;;;;;;31.58;16.90;;;;;;;-2.82;67.24;99777.63;4191471;28;20040;-76
2022/12/16 01:46:23;;;;;;;34.60;15.65;;;;;;;-2.82;67.60;99780.16;4194089;28;20086;-76
2022/12/16 01:48:36;;;;;;;31.70;14.90;;;;;;;-2.74;67.10;99772.09;4197997;28;20444;-76
2022/12/16 01:50:39;;;;;;;28.42;15.63;;;;;;;-2.82;67.21;99780.16;4180987;28;20123;-75
2022/12/16 01:52:47;;;;;;;27.98;15.15;;;;;;;-2.88;67.42;99784.88;4177254;28;20412;-75
2022/12/16 01:54:53;;;;;;;24.38;13.55;;;;;;;-2.74;67.07;99774.63;4194770;28;20040;-75
2022/12/16 01:57:02;;;;;;;26.52;15.02;;;;;;;-2.85;67.38;99768.91;4196357;28;20123;-75
2022/12/16 01:59:05;;;;;;;27.73;15.00;;;;;;;-2.89;67.14;99769.53;4196635;28;20052;-75
2022/12/16 02:01:08;;;;;;;26.10;13.75;;;;;;;-2.86;67.07;99769.69;4179964;28;20063;-75
2022/12/16 02:03:11;;;;;;;36.10;16.38;;;;;;;-2.99;67.33;99770.69;4181762;28;20040;-75
2022/12/16 02:05:21;;;;;;;27.15;14.15;;;;;;;-2.96;68.00;99768.31;4190475;28;20445;-75
2022/12/16 02:07:25;;;;;;;29.00;14.50;;;;;;;-2.91;67.58;99771.13;4197398;28;20098;-76
2022/12/16 02:09:27;;;;;;;29.95;14.60;;;;;;;-2.88;67.11;99774.69;4186876;28;20029;-76
2022/12/16 02:11:59;;;;;;;30.20;15.45;;;;;;;-3.00;67.79;99776.56;4188281;28;20055;-76
2022/12/16 02:14:21;;;;;;;24.90;13.93;;;;;;;-3.03;67.79;99776.41;4186824;28;20067;-75
2022/12/16 02:16:32;;;;;;;24.85;13.85;;;;;;;-2.96;68.48;99775.97;4186620;28;20405;-76
2022/12/16 02:18:47;;;;;;;25.77;12.93;;;;;;;-2.93;67.44;99771.03;4196425;28;20032;-75
2022/12/16 02:21:23;;;;;;;25.38;13.57;;;;;;;-3.01;67.58;99764.63;4191290;28;20131;-76
2022/12/16 02:24:01;;;;;;;31.00;15.85;;;;;;;-2.97;67.85;99756.41;4192704;28;20045;-75
2022/12/16 02:26:45;;;;;;;25.88;14.07;;;;;;;-2.84;67.43;99751.19;4182628;28;20110;-75
2022/12/16 02:29:17;;;;;;;26.42;14.98;;;;;;;-2.98;67.33;99762.25;4118250;28;20046;-75
2022/12/16 02:31:28;;;;;;;26.48;14.93;;;;;;;-2.98;67.67;99759.72;4187438;28;20041;-75
2022/12/16 02:33:56;;;;;;;30.00;15.25;;;;;;;-3.06;67.41;99753.34;4196336;28;20040;-75
2022/12/16 02:36:08;;;;;;;27.48;14.77;;;;;;;-3.06;66.95;99768.59;4190899;28;20032;-75
2022/12/16 02:38:27;;;;;;;23.95;13.48;;;;;;;-3.12;67.76;99768.25;4190022;28;20036;-75
2022/12/16 02:40:52;;;;;;;29.20;14.75;;;;;;;-3.19;67.84;99767.88;4189906;28;20051;-75
2022/12/16 02:43:03;;;;;;;26.00;13.23;;;;;;;-3.09;67.69;99783.69;4189635;28;20550;-74
2022/12/16 02:45:11;;;;;;;29.25;15.48;;;;;;;-3.16;67.45;99783.28;4196797;28;20036;-76
2022/12/16 02:47:15;;;;;;;25.80;14.05;;;;;;;-3.16;67.38;99779.88;4185185;28;20534;-75
2022/12/16 02:49:48;;;;;;;30.10;13.95;;;;;;;-3.23;67.49;99782.88;4180277;28;20098;-75
2022/12/16 02:51:51;;;;;;;26.92;14.57;;;;;;;-3.36;68.29;99784.69;4191836;28;20048;-76
2022/12/16 02:53:55;;;;;;;27.40;14.25;;;;;;;-3.23;67.84;99793.91;4196139;28;20540;-75
2022/12/16 02:56:05;;;;;;;27.48;13.65;;;;;;;-3.26;68.17;99792.84;4196137;28;20037;-76
2022/12/16 02:58:19;;;;;;;24.50;13.63;;;;;;;-3.27;68.38;99794.53;4186065;28;20367;-74
2022/12/16 03:00:24;;;;;;;29.83;14.80;;;;;;;-3.33;68.12;99797.59;4192542;28;20032;-75
2022/12/16 03:02:35;;;;;;;27.67;12.98;;;;;;;-3.29;67.81;99790.13;4194865;28;20040;-75
2022/12/16 03:04:43;;;;;;;28.20;14.15;;;;;;;-3.35;67.73;99795.72;4195932;28;20280;-75
2022/12/16 03:06:49;;;;;;;27.25;13.65;;;;;;;-3.37;68.08;99794.78;4193892;28;20090;-75
2022/12/16 03:08:56;;;;;;;31.00;13.93;;;;;;;-3.37;68.26;99792.25;4181898;28;20517;-76
2022/12/16 03:11:01;;;;;;;27.50;14.85;;;;;;;-3.36;68.08;99801.59;4194648;28;20497;-76
2022/12/16 03:13:07;;;;;;;27.27;13.52;;;;;;;-3.35;67.96;99801.69;4197316;28;20047;-76
2022/12/16 03:15:13;;;;;;;29.77;14.30;;;;;;;-3.28;67.86;99797.84;4195990;28;20426;-75
2022/12/16 03:17:18;;;;;;;27.08;15.18;;;;;;;-3.29;67.84;99800.31;4191124;28;20044;-75
2022/12/16 03:19:24;;;;;;;24.73;13.35;;;;;;;-3.38;68.54;99793.00;4189975;28;20040;-75
2022/12/16 03:21:31;;;;;;;27.90;15.82;;;;;;;-3.37;68.36;99803.28;4195319;28;20048;-75
2022/12/16 03:23:43;;;;;;;25.23;13.10;;;;;;;-3.37;68.58;99802.41;4184932;28;20064;-75
2022/12/16 03:25:48;;;;;;;24.85;13.90;;;;;;;-3.26;68.01;99806.44;4184188;28;20037;-75
2022/12/16 03:27:58;;;;;;;27.52;14.25;;;;;;;-3.23;68.00;99798.97;4165508;28;20179;-75
2022/12/16 03:30:05;;;;;;;28.80;14.23;;;;;;;-3.38;68.20;99796.41;4190328;28;20045;-75
2022/12/16 03:32:11;;;;;;;23.65;13.27;;;;;;;-3.37;68.19;99799.88;4193867;28;20047;-75
2022/12/16 03:34:18;;;;;;;27.45;14.25;;;;;;;-3.39;68.67;99803.97;4194177;28;20032;-75
2022/12/16 03:36:26;;;;;;;23.75;13.35;;;;;;;-3.38;67.96;99809.13;4196261;28;20040;-75
2022/12/16 03:38:31;;;;;;;25.90;12.88;;;;;;;-3.37;67.89;99820.19;4194284;28;20056;-75
2022/12/16 03:40:35;;;;;;;24.73;13.55;;;;;;;-3.30;67.69;99816.31;4191064;28;20048;-75
2022/12/16 03:42:40;;;;;;;25.63;13.73;;;;;;;-3.43;67.91;99824.88;4193793;28;20398;-76
2022/12/16 03:44:43;;;;;;;24.92;13.82;;;;;;;-3.43;67.99;99822.34;4178734;28;20045;-76
2022/12/16 03:46:47;;;;;;;26.58;13.75;;;;;;;-3.37;68.42;99822.72;4188255;28;20399;-76
2022/12/16 03:48:51;;;;;;;26.65;13.77;;;;;;;-3.43;68.92;99829.97;4194542;28;20465;-75
2022/12/16 03:50:54;;;;;;;27.27;13.23;;;;;;;-3.46;68.21;99828.16;4188708;28;20041;-76
2022/12/16 03:52:59;;;;;;;26.88;12.93;;;;;;;-3.29;68.01;99836.75;4191923;28;20461;-76
2022/12/16 03:55:01;;;;;;;24.33;12.27;;;;;;;-3.37;68.38;99838.84;4185282;28;20440;-76
2022/12/16 03:57:04;;;;;;;26.10;13.55;;;;;;;-3.31;67.96;99838.34;4182471;28;20107;-76
2022/12/16 03:59:12;;;;;;;26.33;12.35;;;;;;;-3.40;68.17;99840.31;4194369;28;20056;-75
2022/12/16 04:01:15;;;;;;;23.42;13.60;;;;;;;-3.42;67.46;99840.22;4196301;28;20045;-76
2022/12/16 04:03:21;;;;;;;23.08;12.40;;;;;;;-3.48;68.43;99841.53;4190767;28;20041;-75
2022/12/16 04:05:24;;;;;;;26.42;14.00;;;;;;;-3.61;68.97;99857.69;4189635;28;20047;-76
2022/12/16 04:07:27;;;;;;;24.38;14.13;;;;;;;-3.60;68.82;99855.25;4188449;28;20044;-76
2022/12/16 04:09:31;;;;;;;22.60;12.70;;;;;;;-3.53;69.20;99857.38;4191346;28;20037;-75
2022/12/16 04:25:46;;;;;;;22.25;13.43;;;;;;;-3.65;69.49;99876.97;4195412;28;20040;-75
2022/12/16 04:27:49;;;;;;;22.63;13.30;;;;;;;-3.51;68.57;99885.41;4195228;28;20047;-76
2022/12/16 04:32:13;;;;;;;21.23;12.27;;;;;;;-3.60;68.14;99893.34;4187227;28;20041;-76
2022/12/16 04:34:28;;;;;;;23.55;12.88;;;;;;;-3.69;69.54;99890.25;4193465;28;20482;-76
